sensor_id;sensor_type;location;lat;lon;timestamp;P1;durP1;ratioP1;P2;durP2;ratioP2
78783;SDS011;68127;51.050;14.084;2024-02-16T00:02:15;23.83;;;13.40;;
78783;SDS011;68127;51.050;14.084;2024-02-16T00:04:41;19.85;;;13.00;;
78783;SDS011;68127;51.050;14.084;2024-02-16T00:07:06;22.27;;;13.07;;
78783;SDS011;68127;51.050;14.084;2024-02-16T00:09:31;23.17;;;13.15;;
78783;SDS011;68127;51.050;14.084;2024-02-16T00:11:58;22.35;;;13.38;;
78783;SDS011;68127;51.050;14.084;2024-02-16T00:14:23;20.30;;;13.10;;
78783;SDS011;68127;51.050;14.084;2024-02-16T00:16:48;22.02;;;13.35;;
78783;SDS011;68127;51.050;14.084;2024-02-16T00:19:14;21.42;;;12.95;;
78783;SDS011;68127;51.050;14.084;2024-02-16T00:21:39;24.38;;;13.52;;
78783;SDS011;68127;51.050;14.084;2024-02-16T00:24:07;21.58;;;12.77;;
78783;SDS011;68127;51.050;14.084;2024-02-16T00:26:32;22.10;;;13.50;;
78783;SDS011;68127;51.050;14.084;2024-02-16T00:28:57;24.65;;;14.32;;
78783;SDS011;68127;51.050;14.084;2024-02-16T00:31:23;22.95;;;13.60;;
78783;SDS011;68127;51.050;14.084;2024-02-16T00:33:52;20.02;;;12.93;;
78783;SDS011;68127;51.050;14.084;2024-02-16T00:36:18;21.15;;;13.20;;
78783;SDS011;68127;51.050;14.084;2024-02-16T00:38:43;24.85;;;14.05;;
78783;SDS011;68127;51.050;14.084;2024-02-16T00:41:10;25.83;;;14.77;;
78783;SDS011;68127;51.050;14.084;2024-02-16T00:43:41;25.00;;;14.43;;
78783;SDS011;68127;51.050;14.084;2024-02-16T00:46:09;23.85;;;14.60;;
78783;SDS011;68127;51.050;14.084;2024-02-16T00:48:35;24.58;;;14.93;;
78783;SDS011;68127;51.050;14.084;2024-02-16T00:51:00;23.67;;;14.98;;
78783;SDS011;68127;51.050;14.084;2024-02-16T00:53:25;27.48;;;15.23;;
78783;SDS011;68127;51.050;14.084;2024-02-16T00:55:51;26.38;;;15.50;;
78783;SDS011;68127;51.050;14.084;2024-02-16T00:58:16;25.90;;;15.57;;
78783;SDS011;68127;51.050;14.084;2024-02-16T01:00:42;25.98;;;15.73;;
78783;SDS011;68127;51.050;14.084;2024-02-16T01:03:08;27.05;;;15.40;;
78783;SDS011;68127;51.050;14.084;2024-02-16T01:05:33;24.85;;;15.35;;
78783;SDS011;68127;51.050;14.084;2024-02-16T01:08:00;26.17;;;15.63;;
78783;SDS011;68127;51.050;14.084;2024-02-16T01:10:25;29.90;;;17.13;;
78783;SDS011;68127;51.050;14.084;2024-02-16T01:12:51;30.40;;;17.38;;
78783;SDS011;68127;51.050;14.084;2024-02-16T01:15:17;28.20;;;17.40;;
78783;SDS011;68127;51.050;14.084;2024-02-16T01:17:43;26.30;;;16.13;;
78783;SDS011;68127;51.050;14.084;2024-02-16T01:20:08;25.25;;;16.25;;
78783;SDS011;68127;51.050;14.084;2024-02-16T01:22:37;27.73;;;15.98;;
78783;SDS011;68127;51.050;14.084;2024-02-16T01:25:03;28.98;;;16.25;;
78783;SDS011;68127;51.050;14.084;2024-02-16T01:27:28;25.23;;;15.95;;
78783;SDS011;68127;51.050;14.084;2024-02-16T01:29:53;27.63;;;16.67;;
78783;SDS011;68127;51.050;14.084;2024-02-16T01:32:19;25.60;;;16.58;;
78783;SDS011;68127;51.050;14.084;2024-02-16T01:34:44;28.40;;;16.88;;
78783;SDS011;68127;51.050;14.084;2024-02-16T01:37:11;28.20;;;16.45;;
78783;SDS011;68127;51.050;14.084;2024-02-16T01:39:37;25.70;;;16.30;;
78783;SDS011;68127;51.050;14.084;2024-02-16T01:42:02;26.30;;;16.23;;
78783;SDS011;68127;51.050;14.084;2024-02-16T01:44:27;26.08;;;16.50;;
78783;SDS011;68127;51.050;14.084;2024-02-16T01:46:53;28.70;;;16.30;;
78783;SDS011;68127;51.050;14.084;2024-02-16T01:49:18;26.23;;;16.45;;
78783;SDS011;68127;51.050;14.084;2024-02-16T01:51:43;27.35;;;17.30;;
78783;SDS011;68127;51.050;14.084;2024-02-16T01:54:10;26.65;;;16.55;;
78783;SDS011;68127;51.050;14.084;2024-02-16T01:56:36;26.35;;;16.85;;
78783;SDS011;68127;51.050;14.084;2024-02-16T01:59:01;27.25;;;15.82;;
78783;SDS011;68127;51.050;14.084;2024-02-16T02:01:26;24.13;;;16.13;;
78783;SDS011;68127;51.050;14.084;2024-02-16T02:03:52;26.83;;;16.15;;
78783;SDS011;68127;51.050;14.084;2024-02-16T02:06:17;28.63;;;17.05;;
78783;SDS011;68127;51.050;14.084;2024-02-16T02:08:42;26.27;;;16.85;;
78783;SDS011;68127;51.050;14.084;2024-02-16T02:11:08;24.27;;;15.18;;
78783;SDS011;68127;51.050;14.084;2024-02-16T02:13:34;27.45;;;16.42;;
78783;SDS011;68127;51.050;14.084;2024-02-16T02:15:59;24.90;;;16.05;;
78783;SDS011;68127;51.050;14.084;2024-02-16T02:18:25;28.33;;;16.52;;
78783;SDS011;68127;51.050;14.084;2024-02-16T02:20:51;27.48;;;16.58;;
78783;SDS011;68127;51.050;14.084;2024-02-16T02:23:16;26.50;;;15.55;;
78783;SDS011;68127;51.050;14.084;2024-02-16T02:25:41;24.38;;;15.27;;
78783;SDS011;68127;51.050;14.084;2024-02-16T02:28:07;25.67;;;15.88;;
78783;SDS011;68127;51.050;14.084;2024-02-16T02:30:33;27.40;;;16.00;;
78783;SDS011;68127;51.050;14.084;2024-02-16T02:32:58;24.67;;;15.30;;
78783;SDS011;68127;51.050;14.084;2024-02-16T02:35:23;28.15;;;16.50;;
78783;SDS011;68127;51.050;14.084;2024-02-16T02:37:48;26.80;;;15.77;;
78783;SDS011;68127;51.050;14.084;2024-02-16T02:40:14;26.67;;;16.40;;
78783;SDS011;68127;51.050;14.084;2024-02-16T02:42:39;25.02;;;15.45;;
78783;SDS011;68127;51.050;14.084;2024-02-16T02:45:04;27.48;;;16.45;;
78783;SDS011;68127;51.050;14.084;2024-02-16T02:47:30;24.98;;;15.38;;
78783;SDS011;68127;51.050;14.084;2024-02-16T02:49:56;26.48;;;15.00;;
78783;SDS011;68127;51.050;14.084;2024-02-16T02:52:21;24.77;;;15.40;;
78783;SDS011;68127;51.050;14.084;2024-02-16T02:54:46;26.33;;;15.57;;
78783;SDS011;68127;51.050;14.084;2024-02-16T02:57:11;23.77;;;15.05;;
78783;SDS011;68127;51.050;14.084;2024-02-16T02:59:37;24.52;;;15.40;;
78783;SDS011;68127;51.050;14.084;2024-02-16T03:02:02;26.90;;;15.40;;
78783;SDS011;68127;51.050;14.084;2024-02-16T03:04:28;24.83;;;15.27;;
78783;SDS011;68127;51.050;14.084;2024-02-16T03:06:53;23.45;;;14.68;;
78783;SDS011;68127;51.050;14.084;2024-02-16T03:09:18;22.23;;;13.73;;
78783;SDS011;68127;51.050;14.084;2024-02-16T03:11:43;23.55;;;15.15;;
78783;SDS011;68127;51.050;14.084;2024-02-16T03:14:09;24.85;;;15.40;;
78783;SDS011;68127;51.050;14.084;2024-02-16T03:16:34;26.35;;;15.07;;
78783;SDS011;68127;51.050;14.084;2024-02-16T03:18:59;23.92;;;15.00;;
78783;SDS011;68127;51.050;14.084;2024-02-16T03:21:25;21.80;;;14.02;;
78783;SDS011;68127;51.050;14.084;2024-02-16T03:23:50;24.38;;;15.18;;
78783;SDS011;68127;51.050;14.084;2024-02-16T03:26:19;22.75;;;14.50;;
78783;SDS011;68127;51.050;14.084;2024-02-16T03:28:45;25.33;;;16.17;;
78783;SDS011;68127;51.050;14.084;2024-02-16T03:31:23;26.25;;;15.02;;
78783;SDS011;68127;51.050;14.084;2024-02-16T03:33:49;23.30;;;15.18;;
78783;SDS011;68127;51.050;14.084;2024-02-16T03:36:16;24.50;;;15.60;;
78783;SDS011;68127;51.050;14.084;2024-02-16T03:38:42;20.95;;;14.20;;
78783;SDS011;68127;51.050;14.084;2024-02-16T03:41:10;32.00;;;15.13;;
78783;SDS011;68127;51.050;14.084;2024-02-16T03:43:37;24.77;;;15.30;;
78783;SDS011;68127;51.050;14.084;2024-02-16T03:46:02;22.45;;;14.15;;
78783;SDS011;68127;51.050;14.084;2024-02-16T03:48:28;22.58;;;14.57;;
78783;SDS011;68127;51.050;14.084;2024-02-16T03:50:53;22.25;;;13.38;;
78783;SDS011;68127;51.050;14.084;2024-02-16T03:53:18;21.55;;;13.93;;
78783;SDS011;68127;51.050;14.084;2024-02-16T03:55:44;25.20;;;14.70;;
78783;SDS011;68127;51.050;14.084;2024-02-16T03:58:09;20.90;;;13.40;;
78783;SDS011;68127;51.050;14.084;2024-02-16T04:00:34;21.70;;;14.68;;
78783;SDS011;68127;51.050;14.084;2024-02-16T04:02:59;21.98;;;14.75;;
78783;SDS011;68127;51.050;14.084;2024-02-16T04:05:25;21.65;;;13.18;;
78783;SDS011;68127;51.050;14.084;2024-02-16T04:07:55;23.27;;;14.48;;
78783;SDS011;68127;51.050;14.084;2024-02-16T04:10:21;21.02;;;14.55;;
78783;SDS011;68127;51.050;14.084;2024-02-16T04:12:46;22.83;;;14.52;;
78783;SDS011;68127;51.050;14.084;2024-02-16T04:15:11;23.27;;;14.07;;
78783;SDS011;68127;51.050;14.084;2024-02-16T04:17:36;22.60;;;14.38;;
78783;SDS011;68127;51.050;14.084;2024-02-16T04:20:02;23.10;;;14.25;;
78783;SDS011;68127;51.050;14.084;2024-02-16T04:22:27;24.55;;;14.23;;
78783;SDS011;68127;51.050;14.084;2024-02-16T04:24:53;24.08;;;15.13;;
78783;SDS011;68127;51.050;14.084;2024-02-16T04:27:18;25.27;;;15.07;;
78783;SDS011;68127;51.050;14.084;2024-02-16T04:29:43;22.48;;;14.75;;
78783;SDS011;68127;51.050;14.084;2024-02-16T04:32:09;24.20;;;14.82;;
78783;SDS011;68127;51.050;14.084;2024-02-16T04:34:34;25.05;;;14.70;;
78783;SDS011;68127;51.050;14.084;2024-02-16T04:36:59;24.05;;;14.88;;
78783;SDS011;68127;51.050;14.084;2024-02-16T04:39:25;23.88;;;15.55;;
78783;SDS011;68127;51.050;14.084;2024-02-16T04:41:50;24.52;;;15.45;;
78783;SDS011;68127;51.050;14.084;2024-02-16T04:44:16;24.10;;;15.15;;
78783;SDS011;68127;51.050;14.084;2024-02-16T04:46:42;23.52;;;14.80;;
78783;SDS011;68127;51.050;14.084;2024-02-16T04:49:07;24.48;;;15.40;;
78783;SDS011;68127;51.050;14.084;2024-02-16T04:51:33;25.88;;;15.40;;
78783;SDS011;68127;51.050;14.084;2024-02-16T04:53:58;24.75;;;15.57;;
78783;SDS011;68127;51.050;14.084;2024-02-16T04:56:23;24.85;;;15.25;;
78783;SDS011;68127;51.050;14.084;2024-02-16T04:58:49;25.60;;;14.88;;
78783;SDS011;68127;51.050;14.084;2024-02-16T05:01:14;25.45;;;15.57;;
78783;SDS011;68127;51.050;14.084;2024-02-16T05:03:39;24.15;;;15.75;;
78783;SDS011;68127;51.050;14.084;2024-02-16T05:06:06;24.52;;;15.20;;
78783;SDS011;68127;51.050;14.084;2024-02-16T05:08:31;28.35;;;16.15;;
78783;SDS011;68127;51.050;14.084;2024-02-16T05:10:56;27.88;;;15.80;;
78783;SDS011;68127;51.050;14.084;2024-02-16T05:13:22;24.05;;;14.75;;
78783;SDS011;68127;51.050;14.084;2024-02-16T05:15:47;26.20;;;16.38;;
78783;SDS011;68127;51.050;14.084;2024-02-16T05:18:15;27.35;;;16.23;;
78783;SDS011;68127;51.050;14.084;2024-02-16T05:20:41;29.45;;;16.83;;
78783;SDS011;68127;51.050;14.084;2024-02-16T05:23:06;26.30;;;16.05;;
78783;SDS011;68127;51.050;14.084;2024-02-16T05:25:32;23.80;;;14.90;;
78783;SDS011;68127;51.050;14.084;2024-02-16T05:27:57;26.52;;;15.30;;
78783;SDS011;68127;51.050;14.084;2024-02-16T05:30:22;26.05;;;14.73;;
78783;SDS011;68127;51.050;14.084;2024-02-16T05:32:47;27.88;;;15.75;;
78783;SDS011;68127;51.050;14.084;2024-02-16T05:35:14;25.27;;;14.73;;
78783;SDS011;68127;51.050;14.084;2024-02-16T05:37:41;27.00;;;15.05;;
78783;SDS011;68127;51.050;14.084;2024-02-16T05:40:12;27.52;;;16.35;;
78783;SDS011;68127;51.050;14.084;2024-02-16T05:42:46;23.60;;;15.05;;
78783;SDS011;68127;51.050;14.084;2024-02-16T05:45:12;25.65;;;14.55;;
78783;SDS011;68127;51.050;14.084;2024-02-16T05:47:37;26.08;;;15.88;;
78783;SDS011;68127;51.050;14.084;2024-02-16T05:50:03;27.88;;;15.60;;
78783;SDS011;68127;51.050;14.084;2024-02-16T05:52:30;25.20;;;15.32;;
78783;SDS011;68127;51.050;14.084;2024-02-16T05:54:55;25.85;;;15.52;;
78783;SDS011;68127;51.050;14.084;2024-02-16T05:57:20;25.13;;;15.07;;
78783;SDS011;68127;51.050;14.084;2024-02-16T05:59:46;27.45;;;16.17;;
78783;SDS011;68127;51.050;14.084;2024-02-16T06:02:11;25.67;;;15.13;;
78783;SDS011;68127;51.050;14.084;2024-02-16T06:04:37;27.70;;;16.60;;
78783;SDS011;68127;51.050;14.084;2024-02-16T06:07:02;25.40;;;15.52;;
78783;SDS011;68127;51.050;14.084;2024-02-16T06:09:28;25.42;;;16.08;;
78783;SDS011;68127;51.050;14.084;2024-02-16T06:12:00;27.90;;;16.23;;
78783;SDS011;68127;51.050;14.084;2024-02-16T06:14:29;28.27;;;15.90;;
78783;SDS011;68127;51.050;14.084;2024-02-16T06:16:57;25.25;;;15.55;;
78783;SDS011;68127;51.050;14.084;2024-02-16T06:19:22;28.00;;;17.25;;
78783;SDS011;68127;51.050;14.084;2024-02-16T06:21:48;25.25;;;16.38;;
78783;SDS011;68127;51.050;14.084;2024-02-16T06:24:13;25.92;;;15.73;;
78783;SDS011;68127;51.050;14.084;2024-02-16T06:26:38;24.40;;;16.02;;
78783;SDS011;68127;51.050;14.084;2024-02-16T06:29:03;27.13;;;15.98;;
78783;SDS011;68127;51.050;14.084;2024-02-16T06:31:29;26.92;;;15.25;;
78783;SDS011;68127;51.050;14.084;2024-02-16T06:33:54;27.02;;;16.05;;
78783;SDS011;68127;51.050;14.084;2024-02-16T06:36:20;25.20;;;15.07;;
78783;SDS011;68127;51.050;14.084;2024-02-16T06:38:45;27.65;;;16.10;;
78783;SDS011;68127;51.050;14.084;2024-02-16T06:41:12;26.65;;;16.58;;
78783;SDS011;68127;51.050;14.084;2024-02-16T06:43:37;26.80;;;15.77;;
78783;SDS011;68127;51.050;14.084;2024-02-16T06:46:03;27.35;;;16.27;;
78783;SDS011;68127;51.050;14.084;2024-02-16T06:48:28;26.60;;;14.98;;
78783;SDS011;68127;51.050;14.084;2024-02-16T06:50:53;23.90;;;15.00;;
78783;SDS011;68127;51.050;14.084;2024-02-16T06:53:19;26.13;;;14.85;;
78783;SDS011;68127;51.050;14.084;2024-02-16T06:55:44;25.23;;;15.18;;
78783;SDS011;68127;51.050;14.084;2024-02-16T06:58:09;24.55;;;15.10;;
78783;SDS011;68127;51.050;14.084;2024-02-16T07:00:34;25.27;;;15.65;;
78783;SDS011;68127;51.050;14.084;2024-02-16T07:03:00;29.55;;;16.08;;
78783;SDS011;68127;51.050;14.084;2024-02-16T07:05:26;25.42;;;14.63;;
78783;SDS011;68127;51.050;14.084;2024-02-16T07:07:52;24.40;;;14.20;;
78783;SDS011;68127;51.050;14.084;2024-02-16T07:10:18;25.10;;;15.70;;
78783;SDS011;68127;51.050;14.084;2024-02-16T07:12:43;29.85;;;16.60;;
78783;SDS011;68127;51.050;14.084;2024-02-16T07:15:10;26.25;;;15.98;;
78783;SDS011;68127;51.050;14.084;2024-02-16T07:17:35;28.42;;;14.45;;
78783;SDS011;68127;51.050;14.084;2024-02-16T07:20:01;27.20;;;15.60;;
78783;SDS011;68127;51.050;14.084;2024-02-16T07:22:30;23.38;;;13.77;;
78783;SDS011;68127;51.050;14.084;2024-02-16T07:24:57;22.33;;;15.23;;
78783;SDS011;68127;51.050;14.084;2024-02-16T07:27:23;24.73;;;14.48;;
78783;SDS011;68127;51.050;14.084;2024-02-16T07:29:48;24.05;;;15.13;;
78783;SDS011;68127;51.050;14.084;2024-02-16T07:32:15;27.23;;;14.48;;
78783;SDS011;68127;51.050;14.084;2024-02-16T07:34:41;23.30;;;14.63;;
78783;SDS011;68127;51.050;14.084;2024-02-16T07:37:10;24.58;;;14.30;;
78783;SDS011;68127;51.050;14.084;2024-02-16T07:39:35;27.08;;;16.05;;
78783;SDS011;68127;51.050;14.084;2024-02-16T07:42:01;24.30;;;15.93;;
78783;SDS011;68127;51.050;14.084;2024-02-16T07:44:27;26.13;;;16.58;;
78783;SDS011;68127;51.050;14.084;2024-02-16T07:46:53;29.00;;;15.43;;
78783;SDS011;68127;51.050;14.084;2024-02-16T07:49:18;25.70;;;15.85;;
78783;SDS011;68127;51.050;14.084;2024-02-16T07:51:44;26.60;;;14.77;;
78783;SDS011;68127;51.050;14.084;2024-02-16T07:54:09;23.27;;;15.18;;
78783;SDS011;68127;51.050;14.084;2024-02-16T07:56:34;25.45;;;15.52;;
78783;SDS011;68127;51.050;14.084;2024-02-16T07:58:59;23.40;;;15.25;;
78783;SDS011;68127;51.050;14.084;2024-02-16T08:01:25;31.45;;;15.85;;
78783;SDS011;68127;51.050;14.084;2024-02-16T08:03:50;25.90;;;15.30;;
78783;SDS011;68127;51.050;14.084;2024-02-16T08:06:16;24.35;;;14.65;;
78783;SDS011;68127;51.050;14.084;2024-02-16T08:08:45;29.35;;;16.25;;
78783;SDS011;68127;51.050;14.084;2024-02-16T08:11:11;25.55;;;14.55;;
78783;SDS011;68127;51.050;14.084;2024-02-16T08:13:37;26.08;;;14.75;;
78783;SDS011;68127;51.050;14.084;2024-02-16T08:16:02;24.42;;;15.20;;
78783;SDS011;68127;51.050;14.084;2024-02-16T08:18:31;23.77;;;14.38;;
78783;SDS011;68127;51.050;14.084;2024-02-16T08:20:57;24.00;;;14.13;;
78783;SDS011;68127;51.050;14.084;2024-02-16T08:23:22;24.20;;;15.43;;
78783;SDS011;68127;51.050;14.084;2024-02-16T08:25:47;25.88;;;14.88;;
78783;SDS011;68127;51.050;14.084;2024-02-16T08:28:13;22.30;;;14.23;;
78783;SDS011;68127;51.050;14.084;2024-02-16T08:30:38;21.45;;;14.23;;
78783;SDS011;68127;51.050;14.084;2024-02-16T08:33:06;24.45;;;14.73;;
78783;SDS011;68127;51.050;14.084;2024-02-16T08:35:31;23.58;;;14.88;;
78783;SDS011;68127;51.050;14.084;2024-02-16T08:37:56;24.25;;;14.48;;
78783;SDS011;68127;51.050;14.084;2024-02-16T08:40:22;22.10;;;13.90;;
78783;SDS011;68127;51.050;14.084;2024-02-16T08:42:48;24.65;;;14.75;;
78783;SDS011;68127;51.050;14.084;2024-02-16T08:45:13;24.48;;;14.50;;
78783;SDS011;68127;51.050;14.084;2024-02-16T08:47:42;23.45;;;14.38;;
78783;SDS011;68127;51.050;14.084;2024-02-16T08:50:07;23.17;;;14.65;;
78783;SDS011;68127;51.050;14.084;2024-02-16T08:52:33;25.70;;;13.95;;
78783;SDS011;68127;51.050;14.084;2024-02-16T08:54:58;22.15;;;13.70;;
78783;SDS011;68127;51.050;14.084;2024-02-16T08:57:24;22.42;;;13.82;;
78783;SDS011;68127;51.050;14.084;2024-02-16T08:59:49;22.67;;;13.93;;
78783;SDS011;68127;51.050;14.084;2024-02-16T09:02:14;24.73;;;14.60;;
78783;SDS011;68127;51.050;14.084;2024-02-16T09:04:39;25.05;;;14.77;;
78783;SDS011;68127;51.050;14.084;2024-02-16T09:07:05;19.10;;;13.07;;
78783;SDS011;68127;51.050;14.084;2024-02-16T09:09:30;24.60;;;13.52;;
78783;SDS011;68127;51.050;14.084;2024-02-16T09:11:56;22.58;;;13.68;;
78783;SDS011;68127;51.050;14.084;2024-02-16T09:14:21;21.58;;;13.65;;
78783;SDS011;68127;51.050;14.084;2024-02-16T09:16:48;21.60;;;12.85;;
78783;SDS011;68127;51.050;14.084;2024-02-16T09:19:16;21.58;;;13.40;;
78783;SDS011;68127;51.050;14.084;2024-02-16T09:21:41;24.17;;;13.80;;
78783;SDS011;68127;51.050;14.084;2024-02-16T09:24:06;22.73;;;13.82;;
78783;SDS011;68127;51.050;14.084;2024-02-16T09:26:35;20.83;;;13.60;;
78783;SDS011;68127;51.050;14.084;2024-02-16T09:29:01;21.25;;;13.18;;
78783;SDS011;68127;51.050;14.084;2024-02-16T09:31:26;20.20;;;13.48;;
78783;SDS011;68127;51.050;14.084;2024-02-16T09:33:51;20.35;;;12.98;;
78783;SDS011;68127;51.050;14.084;2024-02-16T09:36:18;21.45;;;13.57;;
78783;SDS011;68127;51.050;14.084;2024-02-16T09:38:43;21.05;;;13.93;;
78783;SDS011;68127;51.050;14.084;2024-02-16T09:41:09;18.70;;;12.40;;
78783;SDS011;68127;51.050;14.084;2024-02-16T09:43:34;18.67;;;12.70;;
78783;SDS011;68127;51.050;14.084;2024-02-16T09:45:59;20.40;;;12.85;;
78783;SDS011;68127;51.050;14.084;2024-02-16T09:48:25;21.25;;;12.93;;
78783;SDS011;68127;51.050;14.084;2024-02-16T09:50:53;21.75;;;14.07;;
78783;SDS011;68127;51.050;14.084;2024-02-16T09:53:19;19.63;;;13.13;;
78783;SDS011;68127;51.050;14.084;2024-02-16T09:55:46;21.63;;;12.85;;
78783;SDS011;68127;51.050;14.084;2024-02-16T09:58:13;19.77;;;13.05;;
78783;SDS011;68127;51.050;14.084;2024-02-16T10:00:42;19.58;;;12.80;;
78783;SDS011;68127;51.050;14.084;2024-02-16T10:03:21;18.17;;;11.80;;
78783;SDS011;68127;51.050;14.084;2024-02-16T10:05:50;19.63;;;12.10;;
78783;SDS011;68127;51.050;14.084;2024-02-16T10:08:18;18.38;;;12.02;;
78783;SDS011;68127;51.050;14.084;2024-02-16T10:10:43;18.88;;;11.80;;
78783;SDS011;68127;51.050;14.084;2024-02-16T10:13:09;18.63;;;12.10;;
78783;SDS011;68127;51.050;14.084;2024-02-16T10:15:36;18.33;;;12.35;;
78783;SDS011;68127;51.050;14.084;2024-02-16T10:18:02;19.83;;;12.50;;
78783;SDS011;68127;51.050;14.084;2024-02-16T10:20:31;15.90;;;11.05;;
78783;SDS011;68127;51.050;14.084;2024-02-16T10:23:07;17.38;;;11.73;;
78783;SDS011;68127;51.050;14.084;2024-02-16T10:25:37;18.73;;;11.43;;
78783;SDS011;68127;51.050;14.084;2024-02-16T10:28:06;17.70;;;11.30;;
78783;SDS011;68127;51.050;14.084;2024-02-16T10:30:36;16.58;;;10.82;;
78783;SDS011;68127;51.050;14.084;2024-02-16T10:33:04;15.63;;;9.98;;
78783;SDS011;68127;51.050;14.084;2024-02-16T10:35:30;16.60;;;11.40;;
78783;SDS011;68127;51.050;14.084;2024-02-16T10:37:56;19.30;;;11.80;;
78783;SDS011;68127;51.050;14.084;2024-02-16T10:40:23;17.27;;;11.25;;
78783;SDS011;68127;51.050;14.084;2024-02-16T10:42:51;18.75;;;10.98;;
78783;SDS011;68127;51.050;14.084;2024-02-16T10:45:17;16.35;;;11.63;;
78783;SDS011;68127;51.050;14.084;2024-02-16T10:47:43;16.85;;;11.23;;
78783;SDS011;68127;51.050;14.084;2024-02-16T10:50:08;16.20;;;10.48;;
78783;SDS011;68127;51.050;14.084;2024-02-16T10:52:34;19.73;;;11.65;;
78783;SDS011;68127;51.050;14.084;2024-02-16T10:55:01;19.13;;;13.60;;
78783;SDS011;68127;51.050;14.084;2024-02-16T10:57:27;18.25;;;12.35;;
78783;SDS011;68127;51.050;14.084;2024-02-16T10:59:52;19.70;;;13.10;;
78783;SDS011;68127;51.050;14.084;2024-02-16T11:02:19;27.73;;;20.85;;
78783;SDS011;68127;51.050;14.084;2024-02-16T11:04:45;20.38;;;11.82;;
78783;SDS011;68127;51.050;14.084;2024-02-16T11:07:11;15.90;;;10.93;;
78783;SDS011;68127;51.050;14.084;2024-02-16T11:09:39;17.08;;;10.98;;
78783;SDS011;68127;51.050;14.084;2024-02-16T11:12:05;15.98;;;10.35;;
78783;SDS011;68127;51.050;14.084;2024-02-16T11:17:15;16.67;;;11.40;;
78783;SDS011;68127;51.050;14.084;2024-02-16T11:19:47;18.48;;;11.48;;
78783;SDS011;68127;51.050;14.084;2024-02-16T11:22:16;17.45;;;11.40;;
78783;SDS011;68127;51.050;14.084;2024-02-16T11:24:46;18.80;;;11.25;;
78783;SDS011;68127;51.050;14.084;2024-02-16T11:27:12;17.30;;;11.40;;
78783;SDS011;68127;51.050;14.084;2024-02-16T11:29:38;18.23;;;12.10;;
78783;SDS011;68127;51.050;14.084;2024-02-16T11:32:07;17.02;;;12.00;;
78783;SDS011;68127;51.050;14.084;2024-02-16T11:34:32;16.70;;;10.77;;
78783;SDS011;68127;51.050;14.084;2024-02-16T11:36:59;17.35;;;10.65;;
78783;SDS011;68127;51.050;14.084;2024-02-16T11:39:28;16.27;;;11.27;;
78783;SDS011;68127;51.050;14.084;2024-02-16T11:42:03;15.52;;;11.27;;
78783;SDS011;68127;51.050;14.084;2024-02-16T11:44:32;15.65;;;10.65;;
78783;SDS011;68127;51.050;14.084;2024-02-16T11:46:59;16.80;;;10.65;;
78783;SDS011;68127;51.050;14.084;2024-02-16T11:49:24;17.00;;;10.90;;
78783;SDS011;68127;51.050;14.084;2024-02-16T11:51:50;15.65;;;10.80;;
78783;SDS011;68127;51.050;14.084;2024-02-16T11:54:15;16.45;;;10.98;;
78783;SDS011;68127;51.050;14.084;2024-02-16T11:56:47;15.68;;;10.43;;
78783;SDS011;68127;51.050;14.084;2024-02-16T11:59:16;17.13;;;11.00;;
78783;SDS011;68127;51.050;14.084;2024-02-16T12:01:55;17.42;;;11.13;;
78783;SDS011;68127;51.050;14.084;2024-02-16T12:04:30;17.00;;;11.10;;
78783;SDS011;68127;51.050;14.084;2024-02-16T12:06:57;17.63;;;10.95;;
78783;SDS011;68127;51.050;14.084;2024-02-16T12:09:23;16.50;;;11.95;;
78783;SDS011;68127;51.050;14.084;2024-02-16T12:11:50;19.13;;;11.93;;
78783;SDS011;68127;51.050;14.084;2024-02-16T12:14:16;15.43;;;10.75;;
78783;SDS011;68127;51.050;14.084;2024-02-16T12:16:42;17.25;;;11.93;;
78783;SDS011;68127;51.050;14.084;2024-02-16T12:19:11;18.80;;;11.18;;
78783;SDS011;68127;51.050;14.084;2024-02-16T12:21:38;20.35;;;12.88;;
78783;SDS011;68127;51.050;14.084;2024-02-16T12:24:03;17.33;;;11.73;;
78783;SDS011;68127;51.050;14.084;2024-02-16T12:26:29;20.23;;;11.77;;
78783;SDS011;68127;51.050;14.084;2024-02-16T12:28:54;16.23;;;11.75;;
78783;SDS011;68127;51.050;14.084;2024-02-16T12:31:20;19.08;;;12.55;;
78783;SDS011;68127;51.050;14.084;2024-02-16T12:33:46;17.90;;;12.10;;
78783;SDS011;68127;51.050;14.084;2024-02-16T12:36:11;18.15;;;12.60;;
78783;SDS011;68127;51.050;14.084;2024-02-16T12:38:36;18.33;;;11.70;;
78783;SDS011;68127;51.050;14.084;2024-02-16T12:41:01;18.08;;;12.52;;
78783;SDS011;68127;51.050;14.084;2024-02-16T12:43:27;24.10;;;14.32;;
78783;SDS011;68127;51.050;14.084;2024-02-16T12:45:52;19.25;;;12.65;;
78783;SDS011;68127;51.050;14.084;2024-02-16T12:48:17;18.38;;;12.93;;
78783;SDS011;68127;51.050;14.084;2024-02-16T12:50:43;19.30;;;13.65;;
78783;SDS011;68127;51.050;14.084;2024-02-16T12:53:08;20.83;;;14.38;;
78783;SDS011;68127;51.050;14.084;2024-02-16T12:55:34;19.92;;;13.73;;
78783;SDS011;68127;51.050;14.084;2024-02-16T12:58:00;20.10;;;14.05;;
78783;SDS011;68127;51.050;14.084;2024-02-16T13:00:26;18.58;;;14.40;;
78783;SDS011;68127;51.050;14.084;2024-02-16T13:02:51;19.38;;;13.52;;
78783;SDS011;68127;51.050;14.084;2024-02-16T13:05:16;20.80;;;13.90;;
78783;SDS011;68127;51.050;14.084;2024-02-16T13:07:42;20.27;;;13.27;;
78783;SDS011;68127;51.050;14.084;2024-02-16T13:10:07;20.60;;;13.70;;
78783;SDS011;68127;51.050;14.084;2024-02-16T13:12:33;17.63;;;11.95;;
78783;SDS011;68127;51.050;14.084;2024-02-16T13:14:58;19.50;;;13.50;;
78783;SDS011;68127;51.050;14.084;2024-02-16T13:17:24;18.10;;;12.85;;
78783;SDS011;68127;51.050;14.084;2024-02-16T13:19:51;20.63;;;13.73;;
78783;SDS011;68127;51.050;14.084;2024-02-16T13:22:16;20.88;;;13.30;;
78783;SDS011;68127;51.050;14.084;2024-02-16T13:24:42;19.73;;;13.40;;
78783;SDS011;68127;51.050;14.084;2024-02-16T13:27:07;18.92;;;13.82;;
78783;SDS011;68127;51.050;14.084;2024-02-16T13:29:32;21.60;;;14.13;;
78783;SDS011;68127;51.050;14.084;2024-02-16T13:31:58;21.02;;;13.10;;
78783;SDS011;68127;51.050;14.084;2024-02-16T13:34:23;18.77;;;12.77;;
78783;SDS011;68127;51.050;14.084;2024-02-16T13:36:50;18.67;;;12.90;;
78783;SDS011;68127;51.050;14.084;2024-02-16T13:39:15;22.45;;;13.55;;
78783;SDS011;68127;51.050;14.084;2024-02-16T13:41:41;19.35;;;14.02;;
78783;SDS011;68127;51.050;14.084;2024-02-16T13:44:08;20.50;;;14.05;;
78783;SDS011;68127;51.050;14.084;2024-02-16T13:46:34;20.15;;;14.68;;
78783;SDS011;68127;51.050;14.084;2024-02-16T13:48:59;20.67;;;14.73;;
78783;SDS011;68127;51.050;14.084;2024-02-16T13:51:25;22.73;;;15.75;;
78783;SDS011;68127;51.050;14.084;2024-02-16T13:53:50;23.58;;;15.65;;
78783;SDS011;68127;51.050;14.084;2024-02-16T13:56:16;22.80;;;16.15;;
78783;SDS011;68127;51.050;14.084;2024-02-16T13:58:41;24.02;;;14.82;;
78783;SDS011;68127;51.050;14.084;2024-02-16T14:01:07;29.60;;;16.58;;
78783;SDS011;68127;51.050;14.084;2024-02-16T14:03:32;21.85;;;16.05;;
78783;SDS011;68127;51.050;14.084;2024-02-16T14:05:58;22.67;;;15.05;;